Weather at Vienna International Airport

Public forecast

Using degrees Celsius for public forecast. Weather courtesy of forecast.io.

Current aviation weather report (METAR) for Vienna International Airport

Retrieved 2021/07/27 08:50 UTC (24 minutes ago):

LOWW 270850Z 33006KT 290V010 9999 FEW050 26/16 Q1016 NOSIG

Aviation forecast (TAF) for Vienna International Airport

Retrieved 2021/07/27 09:21 UTC (0 seconds ago):

TAF LOWW 270815Z 2709/2815 34008KT 9999 FEW050 TX28/2713Z TN19/2803Z BECMG 2711/2714 10006KT TEMPO 2712/2721 FEW050CB BECMG 2804/2806 30012KT PROB30 TEMPO 2804/2807 30020G30KT TSRA FEW045CB BKN050 TEMPO 2812/2815 TSRA BKN050 FEW050CB